Terminal Aerodrome Forecast
Issued by NWS Cleveland, OH

Home | Current Version | Previous Version | Text Only | Print | Product List | Glossary On
Versions: 1 2 3 4 5 6 7 8 9 10 11 12 13 14 15 16 17 18 19 20 21 22 23 24 25
937
FTUS41 KCLE 282052 AAC
TAFCLE
TAF AMD
KCLE 282052Z 2821/2924 01008KT P6SM SCT050 BKN200
     FM290200 VRB03KT P6SM BKN180
     FM290900 00000KT P6SM SCT050 BKN150
     FM291800 01010KT P6SM SCT040 BKN150=

USA.gov is the U.S. government's official web portal to all federal, state and local government web resources and services.